createdAt,value
2019-02-22T00:01:34.517Z,3.80
2019-02-22T00:04:03.394Z,3.60
2019-02-22T00:06:32.114Z,3.70
2019-02-22T00:09:00.615Z,3.70
2019-02-22T00:11:30.915Z,3.83
2019-02-22T00:14:05.594Z,4.17
2019-02-22T00:16:35.958Z,3.80
2019-02-22T00:19:04.549Z,3.87
2019-02-22T00:21:32.935Z,4.00
2019-02-22T00:24:01.494Z,3.70
2019-02-22T00:26:30.275Z,3.60
2019-02-22T00:28:58.674Z,3.45
2019-02-22T00:31:27.454Z,3.50
2019-02-22T00:33:57.974Z,3.42
2019-02-22T00:36:27.009Z,3.52
2019-02-22T00:38:57.514Z,3.20
2019-02-22T00:41:26.495Z,3.20
2019-02-22T00:43:55.596Z,3.92
2019-02-22T00:46:24.120Z,3.70
2019-02-22T00:48:52.954Z,3.75
2019-02-22T00:51:22.054Z,3.00
2019-02-22T00:53:50.814Z,3.47
2019-02-22T00:56:22.316Z,3.30
2019-02-22T00:58:50.814Z,3.22
2019-02-22T01:01:19.576Z,3.20
2019-02-22T01:03:48.154Z,3.17
2019-02-22T01:06:16.876Z,3.40
2019-02-22T01:08:45.617Z,3.30
2019-02-22T01:11:14.614Z,3.20
2019-02-22T01:13:43.396Z,3.47
2019-02-22T01:16:13.954Z,3.27
2019-02-22T01:18:42.475Z,3.22
2019-02-22T01:21:11.514Z,3.27
2019-02-22T01:23:40.114Z,3.20
2019-02-22T01:26:08.775Z,3.05
2019-02-22T01:28:38.894Z,3.00
2019-02-22T01:31:07.754Z,3.20
2019-02-22T01:33:36.674Z,3.10
2019-02-22T01:36:05.674Z,3.08
2019-02-22T01:38:34.574Z,3.10
2019-02-22T01:41:04.696Z,2.87
2019-02-22T01:43:33.675Z,2.77
2019-02-22T01:46:02.679Z,3.10
2019-02-22T01:48:31.391Z,2.80
2019-02-22T01:51:00.356Z,2.75
2019-02-22T01:53:28.854Z,2.70
2019-02-22T01:55:57.714Z,2.83
2019-02-22T01:58:27.956Z,2.65
2019-02-22T02:00:56.834Z,3.02
2019-02-22T02:03:25.536Z,2.30
2019-02-22T02:05:54.419Z,3.22
2019-02-22T02:08:24.634Z,2.70
2019-02-22T02:10:54.420Z,2.83
2019-02-22T02:13:23.514Z,2.58
2019-02-22T02:15:52.334Z,2.92
2019-02-22T02:18:21.275Z,2.77
2019-02-22T02:20:50.232Z,2.52
2019-02-22T02:23:19.056Z,2.72
2019-02-22T02:25:49.214Z,2.50
2019-02-22T02:28:17.714Z,2.83
2019-02-22T02:30:46.716Z,3.05
2019-02-22T02:33:17.234Z,2.60
2019-02-22T02:35:45.915Z,2.62
2019-02-22T02:38:14.394Z,2.70
2019-02-22T02:40:43.095Z,2.98
2019-02-22T02:43:11.917Z,2.55
2019-02-22T02:45:40.654Z,2.67
2019-02-22T02:48:09.454Z,2.35
2019-02-22T02:50:39.994Z,2.70
2019-02-22T02:53:10.496Z,2.37
2019-02-22T02:55:39.534Z,2.35
2019-02-22T02:58:08.396Z,2.52
2019-02-22T03:00:40.255Z,2.50
2019-02-22T03:03:09.035Z,2.50
2019-02-22T03:05:45.694Z,2.40
2019-02-22T03:08:14.725Z,2.83
2019-02-22T03:10:45.234Z,2.42
2019-02-22T03:13:14.214Z,2.52
2019-02-22T03:15:42.678Z,2.58
2019-02-22T03:18:11.494Z,2.70
2019-02-22T03:20:39.994Z,2.55
2019-02-22T03:23:08.354Z,2.40
2019-02-22T03:25:39.095Z,2.10
2019-02-22T03:30:39.250Z,2.33
2019-02-22T03:33:09.157Z,2.50
2019-02-22T03:35:39.135Z,2.43
2019-02-22T03:38:07.741Z,2.70
2019-02-22T03:40:36.934Z,2.42
2019-02-22T03:43:05.816Z,2.15
2019-02-22T03:45:34.414Z,2.47
2019-02-22T03:48:04.839Z,2.40
2019-02-22T03:50:33.816Z,2.33
2019-02-22T03:53:06.674Z,2.05
2019-02-22T03:55:35.214Z,2.27
2019-02-22T03:58:03.994Z,2.10
2019-02-22T04:00:32.476Z,2.17
2019-02-22T04:03:00.975Z,2.40
2019-02-22T04:05:29.734Z,2.37
2019-02-22T04:07:58.536Z,2.17
2019-02-22T04:10:28.835Z,2.27
2019-02-22T04:13:00.494Z,2.33
2019-02-22T04:15:29.496Z,2.50
2019-02-22T04:18:00.014Z,1.92
2019-02-22T04:20:29.114Z,2.02
2019-02-22T04:22:58.015Z,2.40
2019-02-22T04:25:26.574Z,1.98
2019-02-22T04:27:57.034Z,1.85
2019-02-22T04:30:25.776Z,2.10
2019-02-22T04:32:54.497Z,2.12
2019-02-22T04:35:26.642Z,2.30
2019-02-22T04:37:56.914Z,2.15
2019-02-22T04:40:25.477Z,1.90
2019-02-22T04:42:53.915Z,2.30
2019-02-22T04:45:22.554Z,2.33
2019-02-22T04:47:52.956Z,2.50
2019-02-22T04:50:21.854Z,2.00
2019-02-22T04:52:52.074Z,2.10
2019-02-22T04:55:21.163Z,2.33
2019-02-22T04:57:49.675Z,2.25
2019-02-22T05:00:18.455Z,2.02
2019-02-22T05:02:47.535Z,2.10
2019-02-22T05:05:16.435Z,2.15
2019-02-22T05:07:45.516Z,1.80
2019-02-22T05:10:15.754Z,2.22
2019-02-22T05:12:44.734Z,2.12
2019-02-22T05:15:13.614Z,2.10
2019-02-22T05:17:42.736Z,2.15
2019-02-22T05:20:11.614Z,2.10
2019-02-22T05:22:40.356Z,2.05
2019-02-22T05:25:09.194Z,2.00
2019-02-22T05:27:38.074Z,2.00
2019-02-22T05:30:09.835Z,2.05
2019-02-22T05:32:38.816Z,2.12
2019-02-22T05:35:07.426Z,2.20
2019-02-22T05:37:36.396Z,2.02
2019-02-22T05:40:07.435Z,2.20
2019-02-22T05:42:36.559Z,2.00
2019-02-22T05:45:06.494Z,1.72
2019-02-22T05:47:35.936Z,1.90
2019-02-22T05:50:05.494Z,1.92
2019-02-22T05:52:34.035Z,1.92
2019-02-22T05:55:03.357Z,2.17
2019-02-22T05:57:33.254Z,1.85
2019-02-22T06:00:02.039Z,2.10
2019-02-22T06:02:33.907Z,2.20
2019-02-22T06:05:04.436Z,1.70
2019-02-22T06:10:03.448Z,2.40
2019-02-22T06:12:34.961Z,1.90
2019-02-22T06:17:30.854Z,1.80
2019-02-22T06:19:59.716Z,2.20
2019-02-22T06:22:29.915Z,2.00
2019-02-22T06:24:59.154Z,2.02
2019-02-22T06:27:27.836Z,2.40
2019-02-22T06:29:57.734Z,2.00
2019-02-22T06:32:26.634Z,2.03
2019-02-22T06:34:57.082Z,2.10
2019-02-22T06:37:27.495Z,1.80
2019-02-22T06:39:56.275Z,2.08
2019-02-22T06:42:26.394Z,1.95
2019-02-22T06:44:55.194Z,2.00
2019-02-22T06:47:25.095Z,2.00
2019-02-22T06:49:53.915Z,2.10
2019-02-22T06:52:22.434Z,1.90
2019-02-22T06:54:51.356Z,2.12
2019-02-22T06:57:21.082Z,1.90
2019-02-22T06:59:51.495Z,2.20
2019-02-22T07:02:20.734Z,2.00
2019-02-22T07:04:50.877Z,2.00
2019-02-22T07:07:19.795Z,2.00
2019-02-22T07:09:49.834Z,1.92
2019-02-22T07:12:29.475Z,1.92
2019-02-22T07:14:57.915Z,1.75
2019-02-22T07:17:26.734Z,2.00
2019-02-22T07:19:55.635Z,2.12
2019-02-22T07:22:25.634Z,1.67
2019-02-22T07:24:54.115Z,1.90
2019-02-22T07:27:22.721Z,1.80
2019-02-22T07:29:53.154Z,1.72
2019-02-22T07:32:23.354Z,1.77
2019-02-22T07:34:52.454Z,1.62
2019-02-22T07:37:21.445Z,1.98
2019-02-22T07:39:50.014Z,2.02
2019-02-22T07:42:19.157Z,2.20
2019-02-22T07:44:47.714Z,1.80
2019-02-22T07:47:16.697Z,1.85
2019-02-22T07:49:47.434Z,2.00
2019-02-22T07:52:16.263Z,2.00
2019-02-22T07:54:45.230Z,2.00
2019-02-22T07:57:14.117Z,1.90
2019-02-22T07:59:42.837Z,1.90
2019-02-22T08:02:11.314Z,1.75
2019-02-22T08:04:40.276Z,1.90
2019-02-22T08:07:08.685Z,1.80
2019-02-22T08:09:37.754Z,1.90
2019-02-22T08:12:06.735Z,1.65
2019-02-22T08:14:35.634Z,1.90
2019-02-22T08:17:06.237Z,1.60
2019-02-22T08:22:03.651Z,1.70
2019-02-22T08:24:32.616Z,1.90
2019-02-22T08:27:01.436Z,1.77
2019-02-22T08:29:30.295Z,2.35
2019-02-22T08:32:00.247Z,3.02
2019-02-22T08:34:28.914Z,3.05
2019-02-22T08:36:57.474Z,2.95
2019-02-22T08:39:28.635Z,3.20
2019-02-22T08:41:59.074Z,4.17
2019-02-22T08:44:27.914Z,4.90
2019-02-22T08:46:58.339Z,6.55
2019-02-22T08:49:26.856Z,6.92
2019-02-22T08:51:55.935Z,6.67
2019-02-22T08:54:25.875Z,7.20
2019-02-22T08:56:56.394Z,7.00
2019-02-22T08:59:25.154Z,6.45
2019-02-22T09:01:53.758Z,7.22
2019-02-22T09:04:22.254Z,6.83
2019-02-22T09:06:52.473Z,7.35
2019-02-22T09:09:21.476Z,7.33
2019-02-22T09:11:52.014Z,7.25
2019-02-22T09:14:22.134Z,7.58
2019-02-22T09:16:53.474Z,8.15
2019-02-22T09:19:22.334Z,8.03
2019-02-22T09:21:52.754Z,8.45
2019-02-22T09:24:22.897Z,8.30
2019-02-22T09:26:51.774Z,8.80
2019-02-22T09:29:20.557Z,8.55
2019-02-22T09:31:49.394Z,7.65
2019-02-22T09:34:18.454Z,7.78
2019-02-22T09:36:47.354Z,7.47
2019-02-22T09:39:15.874Z,7.22
2019-02-22T09:41:44.894Z,7.17
2019-02-22T09:44:13.494Z,7.25
2019-02-22T09:46:42.274Z,7.80
2019-02-22T09:49:10.875Z,8.33
2019-02-22T09:51:41.256Z,7.55
2019-02-22T09:54:09.802Z,7.42
2019-02-22T09:56:38.394Z,7.17
2019-02-22T09:59:07.155Z,6.92
2019-02-22T10:01:35.574Z,6.25
2019-02-22T10:04:04.514Z,6.55
2019-02-22T10:06:35.055Z,5.65
2019-02-22T10:09:05.095Z,5.30
2019-02-22T10:11:33.537Z,5.45
2019-02-22T10:14:06.692Z,5.55
2019-02-22T10:16:32.875Z,5.70
2019-02-22T10:19:03.060Z,4.78
2019-02-22T10:21:32.075Z,4.95
2019-02-22T10:24:00.514Z,5.05
2019-02-22T10:26:29.002Z,5.10
2019-02-22T10:28:57.414Z,5.33
2019-02-22T10:31:26.322Z,5.05
2019-02-22T10:33:56.477Z,4.58
2019-02-22T10:36:25.183Z,5.20
2019-02-22T10:38:53.634Z,4.62
2019-02-22T10:41:22.594Z,4.78
2019-02-22T10:43:51.474Z,4.47
2019-02-22T10:46:22.077Z,4.53
2019-02-22T10:48:50.606Z,5.65
2019-02-22T10:51:19.697Z,4.70
2019-02-22T10:53:48.159Z,4.75
2019-02-22T10:56:17.135Z,4.80
2019-02-22T10:58:46.156Z,4.87
2019-02-22T11:01:15.054Z,4.83
2019-02-22T11:03:44.054Z,4.50
2019-02-22T11:06:12.502Z,4.25
2019-02-22T11:08:41.234Z,4.83
2019-02-22T11:11:11.338Z,5.12
2019-02-22T11:13:39.834Z,4.17
2019-02-22T11:16:08.810Z,4.47
2019-02-22T11:18:39.546Z,4.15
2019-02-22T11:21:08.634Z,4.35
2019-02-22T11:23:37.614Z,4.20
2019-02-22T11:26:06.414Z,4.08
2019-02-22T11:28:35.394Z,4.17
2019-02-22T11:31:05.634Z,4.45
2019-02-22T11:33:34.414Z,3.45
2019-02-22T11:36:05.136Z,4.10
2019-02-22T11:41:02.414Z,4.25
2019-02-22T11:43:31.274Z,3.90
2019-02-22T11:46:01.835Z,3.83
2019-02-22T11:48:30.954Z,4.03
2019-02-22T11:50:59.776Z,3.60
2019-02-22T11:53:28.497Z,3.80
2019-02-22T11:55:58.774Z,3.77
2019-02-22T11:58:28.134Z,3.87
2019-02-22T12:00:58.156Z,3.55
2019-02-22T12:03:28.215Z,3.60
2019-02-22T12:05:56.714Z,3.72
2019-02-22T12:08:25.474Z,3.40
2019-02-22T12:10:54.215Z,3.90
2019-02-22T12:13:24.554Z,3.70
2019-02-22T12:15:53.055Z,3.00
2019-02-22T12:18:22.974Z,3.40
2019-02-22T12:20:51.920Z,3.80
2019-02-22T12:23:20.320Z,3.75
2019-02-22T12:25:49.221Z,3.42
2019-02-22T12:28:18.223Z,3.35
2019-02-22T12:30:47.194Z,3.67
2019-02-22T12:33:15.694Z,3.17
2019-02-22T12:35:44.674Z,3.42
2019-02-22T12:38:14.414Z,2.95
2019-02-22T12:40:43.375Z,3.27
2019-02-22T12:43:13.282Z,3.02
2019-02-22T12:45:42.269Z,2.77
2019-02-22T12:48:11.258Z,3.60
2019-02-22T12:50:40.255Z,3.60
2019-02-22T12:53:08.774Z,2.83
2019-02-22T12:55:39.198Z,3.33
2019-02-22T12:58:08.384Z,3.15
2019-02-22T13:00:36.842Z,2.92
2019-02-22T13:03:07.534Z,3.08
2019-02-22T13:08:04.654Z,2.85
2019-02-22T13:10:35.375Z,3.05
2019-02-22T13:13:05.934Z,2.90
2019-02-22T13:15:34.794Z,3.20
2019-02-22T13:18:03.794Z,2.98
2019-02-22T13:20:32.894Z,2.80
2019-02-22T13:23:02.745Z,2.50
2019-02-22T13:25:33.034Z,2.92
2019-02-22T13:28:01.514Z,3.12
2019-02-22T13:30:32.522Z,3.20
2019-02-22T13:33:03.883Z,3.00
2019-02-22T13:35:32.514Z,2.85
2019-02-22T13:38:01.117Z,2.75
2019-02-22T13:40:31.454Z,2.70
2019-02-22T13:43:01.834Z,2.67
2019-02-22T13:45:31.902Z,2.85
2019-02-22T13:48:02.356Z,2.80
2019-02-22T13:50:31.154Z,3.08
2019-02-22T13:52:59.879Z,2.50
2019-02-22T13:55:31.695Z,2.75
2019-02-22T13:58:01.754Z,2.77
2019-02-22T14:00:30.795Z,3.40
2019-02-22T14:02:59.715Z,2.72
2019-02-22T14:05:29.178Z,2.30
2019-02-22T14:07:58.974Z,2.80
2019-02-22T14:10:28.017Z,2.90
2019-02-22T14:12:57.616Z,2.40
2019-02-22T14:15:37.120Z,2.85
2019-02-22T14:17:56.398Z,2.80
2019-02-22T14:20:24.939Z,2.52
2019-02-22T14:22:55.334Z,2.60
2019-02-22T14:25:24.014Z,2.58
2019-02-22T14:27:52.594Z,2.60
2019-02-22T14:30:21.434Z,2.90
2019-02-22T14:32:50.397Z,2.67
2019-02-22T14:35:20.594Z,2.70
2019-02-22T14:37:49.514Z,2.35
2019-02-22T14:40:18.713Z,2.50
2019-02-22T14:42:48.660Z,2.58
2019-02-22T14:45:17.695Z,2.50
2019-02-22T14:47:46.594Z,2.77
2019-02-22T14:50:16.114Z,2.52
2019-02-22T14:52:46.117Z,2.52
2019-02-22T14:55:14.635Z,2.35
2019-02-22T14:57:47.276Z,2.02
2019-02-22T15:00:17.424Z,2.40
2019-02-22T15:02:46.238Z,2.47
2019-02-22T15:05:15.102Z,2.30
2019-02-22T15:07:44.295Z,2.08
2019-02-22T15:10:13.497Z,2.52
2019-02-22T15:12:44.795Z,2.27
2019-02-22T15:15:16.255Z,2.47
2019-02-22T15:17:50.880Z,2.70
2019-02-22T15:20:20.515Z,2.33
2019-02-22T15:22:50.855Z,2.25
2019-02-22T15:25:19.909Z,2.55
2019-02-22T15:27:48.357Z,2.50
2019-02-22T15:30:17.204Z,2.20
2019-02-22T15:32:46.054Z,2.55
2019-02-22T15:35:18.445Z,2.65
2019-02-22T15:37:47.455Z,2.25
2019-02-22T15:40:16.236Z,2.27
2019-02-22T15:42:45.237Z,2.62
2019-02-22T15:45:16.339Z,2.20
2019-02-22T15:47:44.996Z,2.50
2019-02-22T15:50:17.054Z,2.17
2019-02-22T15:52:46.234Z,2.27
2019-02-22T15:55:14.876Z,2.30
2019-02-22T15:57:43.545Z,2.55
2019-02-22T16:00:33.490Z,2.42
2019-02-22T16:03:03.497Z,2.40
2019-02-22T16:05:36.775Z,2.02
2019-02-22T16:08:08.855Z,2.52
2019-02-22T16:10:37.874Z,2.20
2019-02-22T16:13:06.517Z,2.47
2019-02-22T16:15:36.465Z,2.20
2019-02-22T16:18:07.031Z,2.50
2019-02-22T16:23:05.675Z,2.22
2019-02-22T16:25:34.951Z,2.25
2019-02-22T16:28:03.854Z,2.60
2019-02-22T16:30:35.509Z,2.33
2019-02-22T16:33:06.874Z,2.27
2019-02-22T16:35:36.076Z,2.80
2019-02-22T16:38:04.555Z,2.75
2019-02-22T16:40:33.279Z,2.77
2019-02-22T16:43:04.674Z,2.60
2019-02-22T16:45:33.195Z,2.95
2019-02-22T16:48:01.614Z,2.60
2019-02-22T16:50:31.246Z,2.47
2019-02-22T16:53:01.206Z,2.50
2019-02-22T16:55:31.716Z,2.20
2019-02-22T16:58:00.696Z,2.20
2019-02-22T17:00:30.914Z,2.35
2019-02-22T17:02:59.897Z,2.17
2019-02-22T17:05:30.755Z,2.40
2019-02-22T17:08:01.376Z,2.30
2019-02-22T17:10:30.475Z,2.33
2019-02-22T17:12:59.214Z,2.02
2019-02-22T17:15:29.674Z,2.05
2019-02-22T17:17:58.574Z,2.30
2019-02-22T17:20:27.657Z,2.33
2019-02-22T17:22:56.357Z,2.40
2019-02-22T17:25:24.895Z,2.52
2019-02-22T17:27:53.734Z,2.55
2019-02-22T17:30:23.238Z,2.72
2019-02-22T17:32:53.594Z,2.70
2019-02-22T17:35:23.045Z,2.77
2019-02-22T17:37:52.742Z,3.22
2019-02-22T17:40:22.495Z,2.50
2019-02-22T17:42:54.350Z,2.60
2019-02-22T17:45:23.435Z,2.95
2019-02-22T17:47:53.134Z,2.75
2019-02-22T17:50:22.771Z,2.80
2019-02-22T17:52:53.360Z,3.00
2019-02-22T17:57:54.442Z,3.22
2019-02-22T18:00:25.795Z,2.87
2019-02-22T18:02:55.641Z,2.70
2019-02-22T18:05:24.435Z,2.60
2019-02-22T18:07:53.075Z,2.80
2019-02-22T18:10:24.994Z,3.12
2019-02-22T18:12:54.375Z,3.70
2019-02-22T18:15:22.935Z,4.53
2019-02-22T18:17:51.355Z,5.53
2019-02-22T18:20:20.025Z,7.37
2019-02-22T18:22:51.954Z,9.53
2019-02-22T18:25:20.635Z,11.55
2019-02-22T18:27:49.715Z,13.43
2019-02-22T18:30:23.289Z,13.08
2019-02-22T18:32:51.714Z,15.20
2019-02-22T18:35:21.825Z,16.32
2019-02-22T18:37:52.194Z,17.45
2019-02-22T18:40:24.134Z,18.67
2019-02-22T18:42:54.674Z,24.25
2019-02-22T18:45:25.194Z,26.57
2019-02-22T18:47:54.054Z,27.80
2019-02-22T18:50:22.856Z,27.95
2019-02-22T18:52:51.608Z,28.30
2019-02-22T18:55:20.631Z,28.50
2019-02-22T18:57:50.315Z,27.52
2019-02-22T19:00:20.554Z,27.87
2019-02-22T19:02:49.802Z,26.65
2019-02-22T19:05:19.994Z,25.05
2019-02-22T19:07:49.056Z,21.90
2019-02-22T19:10:19.348Z,23.45
2019-02-22T19:12:47.875Z,23.15
2019-02-22T19:15:16.494Z,22.67
2019-02-22T19:17:46.496Z,20.88
2019-02-22T19:20:21.177Z,20.97
2019-02-22T19:23:11.482Z,19.32
2019-02-22T19:25:42.267Z,19.45
2019-02-22T19:28:10.654Z,18.25
2019-02-22T19:30:39.475Z,18.12
2019-02-22T19:33:08.394Z,18.45
2019-02-22T19:35:37.574Z,16.87
2019-02-22T19:38:09.164Z,17.57
2019-02-22T19:40:39.895Z,16.62
2019-02-22T19:48:17.117Z,15.07
2019-02-22T19:50:47.435Z,15.50
2019-02-22T19:53:16.015Z,14.00
2019-02-22T19:55:45.717Z,14.53
2019-02-22T19:58:14.634Z,13.95
2019-02-22T20:00:43.524Z,12.35
2019-02-22T20:03:13.834Z,12.55
2019-02-22T20:05:42.578Z,12.70
2019-02-22T20:08:11.334Z,11.83
2019-02-22T20:10:41.574Z,10.63
2019-02-22T20:13:10.315Z,11.12
2019-02-22T20:15:39.414Z,10.58
2019-02-22T20:18:09.534Z,9.88
2019-02-22T20:20:38.334Z,9.63
2019-02-22T20:23:08.114Z,9.60
2019-02-22T20:25:36.637Z,9.18
2019-02-22T20:28:05.829Z,8.10
2019-02-22T20:30:34.836Z,8.40
2019-02-22T20:33:03.414Z,8.25
2019-02-22T20:35:31.814Z,7.85
2019-02-22T20:38:02.154Z,7.17
2019-02-22T20:40:31.874Z,7.03
2019-02-22T20:43:00.415Z,7.60
2019-02-22T20:45:28.994Z,6.25
2019-02-22T20:48:05.048Z,6.12
2019-02-22T20:50:29.643Z,6.70
2019-02-22T20:52:58.738Z,5.47
2019-02-22T20:55:27.202Z,5.62
2019-02-22T20:57:55.755Z,6.53
2019-02-22T21:00:26.634Z,4.97
2019-02-22T21:02:55.122Z,5.22
2019-02-22T21:05:25.729Z,5.53
2019-02-22T21:10:23.754Z,5.10
2019-02-22T21:12:52.374Z,4.30
2019-02-22T21:15:23.246Z,4.67
2019-02-22T21:17:51.694Z,4.80
2019-02-22T21:20:22.355Z,5.00
2019-02-22T21:22:51.334Z,4.67
2019-02-22T21:25:20.934Z,4.50
2019-02-22T21:27:58.155Z,4.35
2019-02-22T21:30:30.554Z,4.55
2019-02-22T21:33:01.843Z,4.17
2019-02-22T21:35:31.755Z,4.30
2019-02-22T21:38:01.794Z,4.00
2019-02-22T21:40:30.275Z,3.80
2019-02-22T21:42:59.294Z,4.30
2019-02-22T21:45:27.834Z,3.47
2019-02-22T21:47:57.754Z,4.08
2019-02-22T21:50:26.738Z,4.13
2019-02-22T21:52:57.177Z,3.90
2019-02-22T21:55:26.156Z,3.67
2019-02-22T21:57:54.754Z,3.85
2019-02-22T22:00:24.794Z,3.27
2019-02-22T22:02:53.635Z,3.75
2019-02-22T22:05:22.658Z,3.12
2019-02-22T22:07:51.862Z,3.52
2019-02-22T22:10:20.415Z,4.03
2019-02-22T22:12:49.174Z,3.77
2019-02-22T22:15:17.595Z,3.40
2019-02-22T22:17:46.458Z,3.72
2019-02-22T22:20:15.090Z,3.20
2019-02-22T22:22:44.156Z,3.50
2019-02-22T22:25:17.655Z,3.50
2019-02-22T22:27:46.414Z,3.37
2019-02-22T22:30:15.962Z,3.52
2019-02-22T22:32:44.757Z,3.25
2019-02-22T22:35:14.054Z,3.70
2019-02-22T22:37:43.035Z,3.27
2019-02-22T22:40:11.735Z,3.47
2019-02-22T22:42:40.602Z,3.40
2019-02-22T22:45:12.136Z,3.40
2019-02-22T22:47:41.078Z,3.37
2019-02-22T22:50:14.354Z,3.15
2019-02-22T22:52:44.515Z,3.33
2019-02-22T22:55:13.215Z,3.50
2019-02-22T22:57:43.674Z,3.25
2019-02-22T23:00:53.254Z,3.20
2019-02-22T23:03:22.334Z,3.20
2019-02-22T23:05:52.164Z,3.67
2019-02-22T23:08:21.142Z,3.57
2019-02-22T23:10:49.714Z,3.35
2019-02-22T23:13:19.326Z,3.72
2019-02-22T23:15:49.756Z,3.02
2019-02-22T23:18:19.955Z,3.52
2019-02-22T23:20:51.017Z,3.47
2019-02-22T23:23:20.954Z,3.70
2019-02-22T23:25:49.434Z,3.10
2019-02-22T23:28:19.262Z,3.17
2019-02-22T23:30:49.695Z,3.10
2019-02-22T23:33:20.574Z,3.02
2019-02-22T23:35:51.234Z,3.35
2019-02-22T23:38:19.954Z,3.20
2019-02-22T23:40:48.514Z,3.37
2019-02-22T23:43:18.495Z,3.25
2019-02-22T23:45:47.394Z,3.83
2019-02-22T23:48:16.196Z,3.33
2019-02-22T23:50:46.196Z,3.30
2019-02-22T23:53:14.875Z,3.35
2019-02-22T23:55:43.795Z,3.22
2019-02-22T23:58:14.294Z,3.47
